createdAt,value
2017-02-08T00:00:07.602Z,3.99
2017-02-08T00:01:07.246Z,3.93
2017-02-08T00:02:07.921Z,4.24
2017-02-08T00:03:07.615Z,4.08
2017-02-08T00:04:07.249Z,4.09
2017-02-08T00:05:07.920Z,4.13
2017-02-08T00:06:07.743Z,4.05
2017-02-08T00:07:07.380Z,4.02
2017-02-08T00:08:07.070Z,4.05
2017-02-08T00:09:07.746Z,4.01
2017-02-08T00:10:07.402Z,3.96
2017-02-08T00:11:07.082Z,4.09
2017-02-08T00:12:07.726Z,4.19
2017-02-08T00:13:07.445Z,4.00
2017-02-08T00:14:07.041Z,4.05
2017-02-08T00:15:07.649Z,3.98
2017-02-08T00:16:07.350Z,4.07
2017-02-08T00:17:08.094Z,4.05
2017-02-08T00:18:07.819Z,3.98
2017-02-08T00:19:07.439Z,4.05
2017-02-08T00:20:07.097Z,4.23
2017-02-08T00:21:07.747Z,4.20
2017-02-08T00:22:07.411Z,4.06
2017-02-08T00:23:07.028Z,4.13
2017-02-08T00:24:07.716Z,4.10
2017-02-08T00:25:07.354Z,4.11
2017-02-08T00:26:07.044Z,4.20
2017-02-08T00:27:07.746Z,4.00
2017-02-08T00:28:07.448Z,4.06
2017-02-08T00:29:07.059Z,4.03
2017-02-08T00:30:07.753Z,3.97
2017-02-08T00:31:07.414Z,3.93
2017-02-08T00:32:07.080Z,3.87
2017-02-08T00:33:07.792Z,3.98
2017-02-08T00:34:07.417Z,3.99
2017-02-08T00:35:07.078Z,3.89
2017-02-08T00:36:07.798Z,3.94
2017-02-08T00:37:07.447Z,3.91
2017-02-08T00:38:07.132Z,4.11
2017-02-08T00:39:07.758Z,3.98
2017-02-08T00:40:07.438Z,3.87
2017-02-08T00:41:07.072Z,3.98
2017-02-08T00:42:07.708Z,4.01
2017-02-08T00:43:07.412Z,4.01
2017-02-08T00:44:08.035Z,4.21
2017-02-08T00:45:07.700Z,3.96
2017-02-08T00:46:07.354Z,3.85
2017-02-08T00:47:08.018Z,3.83
2017-02-08T00:48:07.715Z,3.93
2017-02-08T00:49:07.312Z,4.04
2017-02-08T00:50:08.011Z,4.14
2017-02-08T00:51:07.653Z,3.94
2017-02-08T00:52:07.311Z,3.74
2017-02-08T00:53:07.994Z,3.94
2017-02-08T00:54:07.605Z,3.80
2017-02-08T00:55:07.289Z,3.74
2017-02-08T00:56:07.915Z,3.94
2017-02-08T00:57:07.567Z,4.01
2017-02-08T00:58:07.271Z,4.10
2017-02-08T00:59:07.866Z,3.99
2017-02-08T01:00:07.508Z,4.24
2017-02-08T01:01:07.135Z,4.05
2017-02-08T01:02:07.810Z,4.10
2017-02-08T01:03:07.524Z,4.04
2017-02-08T01:04:07.147Z,3.68
2017-02-08T01:05:07.784Z,3.74
2017-02-08T01:06:07.586Z,3.98
2017-02-08T01:07:07.239Z,3.90
2017-02-08T01:08:07.962Z,3.94
2017-02-08T01:09:07.583Z,3.85
2017-02-08T01:10:07.233Z,3.99
2017-02-08T01:11:07.842Z,3.82
2017-02-08T01:12:07.494Z,3.77
2017-02-08T01:13:07.199Z,3.87
2017-02-08T01:14:07.826Z,3.78
2017-02-08T01:15:07.511Z,3.86
2017-02-08T01:16:07.131Z,3.99
2017-02-08T01:17:07.895Z,3.86
2017-02-08T01:18:07.662Z,3.86
2017-02-08T01:19:07.289Z,3.90
2017-02-08T01:20:07.942Z,3.97
2017-02-08T01:21:07.609Z,3.90
2017-02-08T01:22:07.293Z,3.86
2017-02-08T01:23:07.977Z,3.88
2017-02-08T01:24:07.589Z,4.10
2017-02-08T01:25:07.227Z,3.83
2017-02-08T01:26:07.894Z,3.92
2017-02-08T01:27:07.539Z,3.96
2017-02-08T01:28:07.260Z,4.05
2017-02-08T01:29:07.820Z,4.09
2017-02-08T01:30:07.469Z,4.26
2017-02-08T01:31:07.135Z,4.31
2017-02-08T01:32:07.799Z,4.24
2017-02-08T01:33:07.525Z,3.89
2017-02-08T01:34:07.137Z,4.14
2017-02-08T01:35:07.773Z,4.02
2017-02-08T01:36:07.612Z,4.07
2017-02-08T01:37:07.260Z,3.96
2017-02-08T01:38:08.163Z,4.08
2017-02-08T01:39:07.596Z,4.19
2017-02-08T01:40:07.243Z,4.25
2017-02-08T01:41:07.921Z,4.16
2017-02-08T01:42:07.632Z,4.22
2017-02-08T01:43:07.351Z,4.05
2017-02-08T01:44:07.944Z,4.17
2017-02-08T01:45:07.628Z,4.12
2017-02-08T01:46:07.297Z,3.88
2017-02-08T01:47:07.953Z,4.05
2017-02-08T01:48:07.645Z,3.88
2017-02-08T01:49:07.236Z,3.92
2017-02-08T01:50:07.848Z,4.01
2017-02-08T01:51:07.564Z,3.93
2017-02-08T01:53:07.850Z,3.96
2017-02-08T01:54:07.461Z,3.89
2017-02-08T01:55:07.080Z,3.98
2017-02-08T01:56:07.752Z,3.95
2017-02-08T01:57:07.410Z,4.09
2017-02-08T01:58:07.127Z,4.24
2017-02-08T01:59:07.702Z,4.10
2017-02-08T02:00:08.409Z,3.94
2017-02-08T02:01:07.958Z,3.88
2017-02-08T02:02:07.679Z,3.81
2017-02-08T02:03:07.357Z,3.95
2017-02-08T02:04:07.959Z,3.94
2017-02-08T02:05:07.631Z,4.07
2017-02-08T02:06:07.353Z,4.13
2017-02-08T02:07:07.994Z,4.05
2017-02-08T02:08:07.704Z,3.70
2017-02-08T02:09:07.320Z,3.74
2017-02-08T02:10:07.998Z,3.71
2017-02-08T02:11:07.649Z,3.71
2017-02-08T02:12:07.285Z,3.83
2017-02-08T02:13:18.452Z,3.91
2017-02-08T02:14:07.634Z,3.90
2017-02-08T02:15:07.362Z,3.83
2017-02-08T02:16:07.912Z,3.99
2017-02-08T02:17:07.637Z,3.99
2017-02-08T02:18:07.324Z,3.77
2017-02-08T02:19:08.045Z,3.60
2017-02-08T02:20:07.698Z,3.87
2017-02-08T02:21:07.351Z,3.82
2017-02-08T02:22:07.023Z,3.82
2017-02-08T02:23:07.677Z,3.64
2017-02-08T02:24:07.382Z,3.87
2017-02-08T02:25:07.975Z,3.92
2017-02-08T02:26:07.585Z,3.98
2017-02-08T02:27:07.215Z,3.90
2017-02-08T02:28:07.886Z,3.81
2017-02-08T02:29:07.550Z,3.76
2017-02-08T02:30:07.184Z,3.54
2017-02-08T02:31:07.847Z,3.73
2017-02-08T02:32:07.498Z,3.85
2017-02-08T02:33:07.131Z,3.76
2017-02-08T02:34:07.838Z,3.87
2017-02-08T02:35:08.586Z,3.68
2017-02-08T02:36:07.099Z,3.70
2017-02-08T02:37:07.795Z,3.69
2017-02-08T02:38:07.423Z,3.87
2017-02-08T02:39:07.137Z,4.07
2017-02-08T02:40:07.754Z,3.89
2017-02-08T02:41:07.409Z,3.73
2017-02-08T02:42:07.079Z,3.62
2017-02-08T02:43:07.739Z,3.66
2017-02-08T02:44:07.416Z,3.63
2017-02-08T02:45:07.080Z,3.48
2017-02-08T02:46:07.728Z,3.57
2017-02-08T02:47:07.380Z,3.64
2017-02-08T02:48:08.017Z,3.72
2017-02-08T02:49:07.698Z,3.58
2017-02-08T02:50:07.355Z,3.82
2017-02-08T02:51:08.008Z,3.84
2017-02-08T02:52:07.676Z,3.83
2017-02-08T02:53:07.370Z,3.73
2017-02-08T02:54:07.036Z,3.70
2017-02-08T02:55:07.714Z,3.82
2017-02-08T02:56:07.373Z,3.54
2017-02-08T02:57:08.037Z,3.52
2017-02-08T02:58:07.656Z,3.77
2017-02-08T02:59:07.359Z,3.75
2017-02-08T03:00:07.982Z,3.54
2017-02-08T03:01:07.624Z,3.52
2017-02-08T03:02:07.274Z,3.35
2017-02-08T03:03:07.941Z,3.71
2017-02-08T03:04:07.598Z,3.50
2017-02-08T03:05:07.372Z,3.47
2017-02-08T03:06:07.874Z,3.63
2017-02-08T03:07:07.513Z,3.50
2017-02-08T03:08:07.162Z,3.21
2017-02-08T03:09:07.839Z,3.16
2017-02-08T03:10:07.474Z,3.23
2017-02-08T03:11:07.126Z,3.33
2017-02-08T03:12:07.766Z,3.41
2017-02-08T03:13:07.424Z,3.34
2017-02-08T03:14:07.134Z,3.48
2017-02-08T03:15:07.750Z,3.40
2017-02-08T03:16:07.385Z,3.52
2017-02-08T03:17:07.110Z,3.70
2017-02-08T03:18:07.867Z,3.50
2017-02-08T03:19:07.535Z,3.46
2017-02-08T03:20:07.171Z,3.54
2017-02-08T03:21:07.842Z,3.57
2017-02-08T03:22:07.465Z,3.56
2017-02-08T03:23:07.153Z,3.47
2017-02-08T03:24:07.784Z,3.44
2017-02-08T03:25:07.389Z,3.44
2017-02-08T03:26:07.058Z,3.49
2017-02-08T03:27:07.727Z,3.61
2017-02-08T03:28:07.368Z,3.57
2017-02-08T03:29:08.034Z,3.48
2017-02-08T03:30:07.633Z,3.62
2017-02-08T03:31:07.324Z,3.54
2017-02-08T03:32:07.958Z,3.46
2017-02-08T03:33:07.655Z,3.54
2017-02-08T03:34:07.317Z,3.52
2017-02-08T03:35:07.971Z,3.49
2017-02-08T03:36:07.577Z,3.54
2017-02-08T03:37:07.256Z,3.40
2017-02-08T03:38:07.889Z,3.35
2017-02-08T03:39:07.584Z,3.64
2017-02-08T03:40:07.184Z,3.38
2017-02-08T03:41:07.813Z,3.34
2017-02-08T03:42:07.437Z,3.30
2017-02-08T03:43:07.142Z,3.26
2017-02-08T03:44:07.814Z,3.41
2017-02-08T03:45:07.423Z,3.51
2017-02-08T03:46:07.041Z,3.83
2017-02-08T03:47:07.714Z,3.65
2017-02-08T03:48:07.383Z,3.74
2017-02-08T03:49:08.063Z,3.56
2017-02-08T03:50:07.681Z,3.67
2017-02-08T03:51:07.289Z,3.64
2017-02-08T03:52:07.937Z,3.60
2017-02-08T03:53:07.611Z,3.75
2017-02-08T03:54:07.327Z,3.65
2017-02-08T03:55:07.935Z,3.40
2017-02-08T03:56:07.627Z,3.45
2017-02-08T03:57:07.320Z,3.34
2017-02-08T03:58:07.946Z,3.38
2017-02-08T03:59:07.629Z,3.37
2017-02-08T04:00:07.238Z,3.28
2017-02-08T04:01:07.911Z,3.30
2017-02-08T04:02:07.579Z,3.28
2017-02-08T04:03:07.202Z,3.35
2017-02-08T04:04:07.907Z,3.42
2017-02-08T04:05:07.648Z,3.36
2017-02-08T04:06:07.170Z,3.40
2017-02-08T04:07:07.938Z,3.57
2017-02-08T04:08:07.475Z,3.42
2017-02-08T04:09:07.175Z,3.62
2017-02-08T04:10:07.818Z,3.38
2017-02-08T04:11:07.497Z,3.51
2017-02-08T04:12:08.646Z,3.62
2017-02-08T04:13:07.807Z,3.51
2017-02-08T04:14:07.503Z,3.23
2017-02-08T04:15:07.129Z,3.43
2017-02-08T04:16:07.796Z,3.40
2017-02-08T04:17:07.549Z,3.52
2017-02-08T04:18:07.254Z,3.27
2017-02-08T04:19:07.950Z,3.51
2017-02-08T04:20:07.554Z,3.48
2017-02-08T04:21:07.203Z,3.40
2017-02-08T04:22:07.868Z,3.59
2017-02-08T04:23:07.649Z,3.42
2017-02-08T04:24:07.227Z,3.57
2017-02-08T04:25:07.841Z,3.40
2017-02-08T04:26:07.473Z,3.45
2017-02-08T04:27:07.125Z,3.53
2017-02-08T04:28:07.827Z,3.40
2017-02-08T04:29:07.532Z,3.49
2017-02-08T04:30:07.130Z,3.55
2017-02-08T04:31:07.784Z,3.35
2017-02-08T04:32:07.398Z,3.47
2017-02-08T04:33:07.047Z,3.58
2017-02-08T04:34:07.743Z,3.31
2017-02-08T04:35:07.501Z,3.37
2017-02-08T04:36:07.980Z,3.26
2017-02-08T04:37:07.678Z,3.30
2017-02-08T04:38:07.344Z,3.44
2017-02-08T04:39:08.040Z,3.49
2017-02-08T04:40:07.655Z,3.48
2017-02-08T04:41:07.304Z,3.46
2017-02-08T04:42:07.962Z,3.53
2017-02-08T04:43:07.608Z,3.58
2017-02-08T04:44:07.297Z,3.38
2017-02-08T04:45:07.911Z,3.23
2017-02-08T04:46:07.580Z,3.33
2017-02-08T04:47:07.213Z,3.32
2017-02-08T04:48:07.857Z,3.32
2017-02-08T04:49:07.539Z,3.41
2017-02-08T04:50:07.184Z,3.44
2017-02-08T04:51:07.838Z,3.55
2017-02-08T04:52:07.477Z,3.52
2017-02-08T04:53:07.141Z,3.49
2017-02-08T04:54:07.840Z,3.39
2017-02-08T04:55:07.439Z,3.42
2017-02-08T04:56:07.096Z,3.40
2017-02-08T04:57:07.745Z,3.44
2017-02-08T04:58:07.409Z,3.48
2017-02-08T04:59:07.046Z,3.42
2017-02-08T05:00:07.669Z,3.34
2017-02-08T05:01:07.386Z,3.45
2017-02-08T05:02:08.035Z,3.56
2017-02-08T05:03:07.660Z,3.43
2017-02-08T05:04:07.451Z,3.51
2017-02-08T05:05:08.016Z,3.27
2017-02-08T05:06:07.623Z,3.63
2017-02-08T05:07:07.279Z,3.53
2017-02-08T05:08:07.914Z,3.53
2017-02-08T05:09:07.616Z,3.41
2017-02-08T05:10:07.253Z,3.30
2017-02-08T05:11:07.862Z,3.26
2017-02-08T05:12:07.492Z,3.33
2017-02-08T05:13:07.168Z,3.51
2017-02-08T05:14:07.871Z,3.35
2017-02-08T05:15:07.511Z,3.45
2017-02-08T05:16:07.171Z,3.28
2017-02-08T05:17:07.899Z,3.40
2017-02-08T05:18:07.622Z,3.47
2017-02-08T05:19:07.301Z,3.54
2017-02-08T05:20:07.956Z,3.56
2017-02-08T05:21:07.655Z,3.35
2017-02-08T05:22:07.257Z,3.77
2017-02-08T05:23:07.877Z,3.40
2017-02-08T05:24:07.599Z,3.15
2017-02-08T05:25:09.600Z,3.17
2017-02-08T05:26:07.578Z,3.41
2017-02-08T05:27:07.284Z,3.43
2017-02-08T05:28:07.903Z,3.36
2017-02-08T05:29:07.633Z,3.37
2017-02-08T05:30:07.230Z,3.68
2017-02-08T05:31:07.891Z,3.37
2017-02-08T05:32:07.574Z,3.48
2017-02-08T05:33:07.234Z,3.54
2017-02-08T05:34:07.921Z,3.54
2017-02-08T05:35:07.673Z,3.63
2017-02-08T05:36:07.230Z,3.65
2017-02-08T05:37:07.865Z,3.44
2017-02-08T05:38:07.526Z,3.53
2017-02-08T05:39:07.237Z,3.50
2017-02-08T05:40:07.842Z,3.72
2017-02-08T05:41:07.516Z,3.62
2017-02-08T05:42:07.151Z,3.39
2017-02-08T05:43:07.808Z,3.35
2017-02-08T05:44:07.501Z,3.39
2017-02-08T05:45:07.114Z,3.21
2017-02-08T05:46:07.780Z,3.33
2017-02-08T05:47:07.428Z,3.22
2017-02-08T05:48:07.161Z,3.12
2017-02-08T05:49:07.770Z,3.20
2017-02-08T05:50:07.367Z,3.35
2017-02-08T05:51:08.023Z,3.36
2017-02-08T05:52:07.622Z,3.16
2017-02-08T05:53:07.314Z,3.14
2017-02-08T05:54:08.008Z,3.08
2017-02-08T05:55:07.603Z,3.28
2017-02-08T05:56:07.296Z,3.11
2017-02-08T05:57:07.936Z,3.23
2017-02-08T05:58:07.584Z,3.51
2017-02-08T05:59:07.301Z,3.39
2017-02-08T06:00:07.884Z,3.54
2017-02-08T06:01:07.512Z,3.42
2017-02-08T06:02:07.204Z,3.26
2017-02-08T06:03:07.819Z,3.19
2017-02-08T06:04:07.534Z,3.16
2017-02-08T06:05:07.231Z,3.08
2017-02-08T06:06:07.796Z,3.11
2017-02-08T06:07:07.463Z,3.26
2017-02-08T06:08:07.120Z,3.36
2017-02-08T06:09:07.826Z,3.35
2017-02-08T06:10:07.429Z,3.37
2017-02-08T06:11:07.028Z,3.41
2017-02-08T06:12:07.732Z,3.62
2017-02-08T06:13:07.408Z,3.76
2017-02-08T06:14:07.052Z,3.45
2017-02-08T06:15:07.725Z,3.48
2017-02-08T06:16:07.353Z,3.39
2017-02-08T06:17:07.126Z,3.20
2017-02-08T06:18:07.823Z,3.00
2017-02-08T06:19:07.523Z,3.08
2017-02-08T06:20:07.116Z,3.33
2017-02-08T06:21:07.802Z,3.32
2017-02-08T06:22:07.459Z,3.31
2017-02-08T06:23:07.101Z,3.48
2017-02-08T06:24:07.756Z,3.47
2017-02-08T06:25:07.352Z,3.33
2017-02-08T06:26:08.081Z,3.28
2017-02-08T06:27:07.654Z,3.33
2017-02-08T06:28:07.310Z,3.45
2017-02-08T06:29:08.006Z,3.58
2017-02-08T06:30:07.605Z,3.32
2017-02-08T06:31:07.288Z,3.54
2017-02-08T06:32:07.991Z,3.46
2017-02-08T06:33:07.600Z,3.53
2017-02-08T06:34:07.308Z,3.44
2017-02-08T06:35:07.974Z,3.42
2017-02-08T06:36:07.611Z,3.37
2017-02-08T06:37:07.272Z,3.28
2017-02-08T06:38:07.952Z,3.36
2017-02-08T06:39:07.661Z,3.38
2017-02-08T06:40:07.279Z,3.39
2017-02-08T06:41:07.941Z,3.37
2017-02-08T06:42:07.578Z,3.31
2017-02-08T06:43:07.241Z,3.35
2017-02-08T06:44:07.911Z,3.39
2017-02-08T06:45:07.547Z,3.48
2017-02-08T06:46:07.203Z,3.45
2017-02-08T06:47:07.875Z,3.62
2017-02-08T06:48:07.514Z,3.57
2017-02-08T06:49:07.235Z,3.38
2017-02-08T06:50:07.834Z,3.38
2017-02-08T06:51:07.486Z,3.31
2017-02-08T06:52:07.146Z,3.36
2017-02-08T06:53:07.809Z,3.46
2017-02-08T06:54:07.542Z,3.47
2017-02-08T06:55:07.140Z,3.48
2017-02-08T06:56:07.111Z,3.80
2017-02-08T06:57:07.723Z,3.77
2017-02-08T06:58:07.401Z,3.64
2017-02-08T06:59:07.055Z,3.44
2017-02-08T07:00:07.726Z,3.64
2017-02-08T07:01:07.384Z,3.47
2017-02-08T07:02:08.018Z,3.49
2017-02-08T07:03:07.740Z,3.46
2017-02-08T07:04:07.360Z,3.39
2017-02-08T07:05:09.105Z,3.46
2017-02-08T07:06:07.672Z,3.31
2017-02-08T07:07:07.289Z,3.52
2017-02-08T07:08:07.930Z,3.54
2017-02-08T07:09:08.719Z,3.39
2017-02-08T07:10:07.227Z,3.23
2017-02-08T07:11:07.875Z,3.32
2017-02-08T07:12:07.524Z,3.32
2017-02-08T07:13:07.201Z,3.34
2017-02-08T07:14:07.883Z,3.51
2017-02-08T07:15:07.501Z,3.64
2017-02-08T07:16:07.159Z,3.28
2017-02-08T07:17:08.888Z,3.55
2017-02-08T07:18:07.670Z,3.40
2017-02-08T07:19:07.325Z,3.34
2017-02-08T07:20:07.989Z,3.23
2017-02-08T07:21:07.622Z,3.26
2017-02-08T07:22:08.483Z,3.21
2017-02-08T07:23:07.941Z,3.52
2017-02-08T07:24:07.574Z,3.58
2017-02-08T07:25:07.303Z,3.54
2017-02-08T07:26:07.917Z,3.66
2017-02-08T07:27:07.547Z,3.62
2017-02-08T07:28:07.243Z,3.56
2017-02-08T07:29:07.946Z,3.44
2017-02-08T07:30:07.624Z,3.39
2017-02-08T07:31:07.283Z,3.30
2017-02-08T07:32:07.894Z,3.35
2017-02-08T07:33:07.528Z,3.26
2017-02-08T07:34:07.209Z,3.24
2017-02-08T07:35:07.964Z,3.17
2017-02-08T07:36:08.563Z,2.98
2017-02-08T07:37:07.204Z,2.98
2017-02-08T07:38:07.837Z,3.13
2017-02-08T07:39:07.483Z,3.22
2017-02-08T07:40:07.180Z,3.21
2017-02-08T07:41:07.768Z,3.29
2017-02-08T07:42:07.439Z,3.29
2017-02-08T07:43:07.114Z,3.17
2017-02-08T07:44:07.769Z,3.30
2017-02-08T07:45:07.391Z,3.35
2017-02-08T07:46:08.016Z,3.53
2017-02-08T07:47:07.650Z,3.74
2017-02-08T07:48:07.340Z,3.69
2017-02-08T07:49:07.976Z,3.74
2017-02-08T07:50:07.672Z,3.69
2017-02-08T07:51:07.294Z,3.76
2017-02-08T07:52:07.939Z,3.66
2017-02-08T07:53:07.611Z,3.91
2017-02-08T07:54:07.295Z,3.60
2017-02-08T07:55:08.019Z,3.82
2017-02-08T07:56:07.627Z,3.61
2017-02-08T07:57:07.289Z,3.70
2017-02-08T07:58:07.965Z,3.80
2017-02-08T07:59:07.644Z,3.78
2017-02-08T08:00:07.305Z,3.90
2017-02-08T08:01:07.921Z,3.75
2017-02-08T08:02:17.672Z,3.67
2017-02-08T08:03:07.255Z,3.70
2017-02-08T08:04:08.984Z,3.55
2017-02-08T08:05:07.710Z,3.54
2017-02-08T08:06:07.185Z,3.70
2017-02-08T08:07:07.880Z,3.71
2017-02-08T08:08:07.531Z,3.60
2017-02-08T08:09:07.198Z,3.59
2017-02-08T08:10:07.883Z,3.58
2017-02-08T08:11:07.512Z,3.67
2017-02-08T08:12:07.203Z,3.60
2017-02-08T08:13:07.845Z,3.25
2017-02-08T08:14:07.553Z,3.33
2017-02-08T08:15:07.251Z,3.41
2017-02-08T08:16:07.855Z,3.67
2017-02-08T08:17:07.649Z,3.65
2017-02-08T08:18:07.347Z,3.68
2017-02-08T08:19:07.065Z,3.91
2017-02-08T08:20:07.750Z,3.92
2017-02-08T08:21:07.398Z,4.03
2017-02-08T08:22:07.051Z,3.88
2017-02-08T08:23:07.702Z,3.89
2017-02-08T08:24:07.357Z,3.82
2017-02-08T08:25:07.035Z,3.76
2017-02-08T08:26:07.704Z,3.94
2017-02-08T08:27:07.405Z,3.78
2017-02-08T08:28:07.063Z,3.89
2017-02-08T08:29:07.777Z,3.86
2017-02-08T08:30:07.424Z,4.03
2017-02-08T08:31:07.015Z,4.05
2017-02-08T08:32:07.691Z,3.82
2017-02-08T08:33:07.375Z,3.82
2017-02-08T08:34:08.010Z,3.80
2017-02-08T08:35:07.824Z,3.95
2017-02-08T08:36:07.292Z,4.04
2017-02-08T08:37:07.954Z,3.93
2017-02-08T08:38:07.613Z,3.68
2017-02-08T08:39:07.276Z,3.90
2017-02-08T08:40:07.964Z,3.90
2017-02-08T08:41:07.559Z,3.90
2017-02-08T08:42:07.238Z,4.06
2017-02-08T08:43:07.919Z,3.93
2017-02-08T08:44:07.572Z,3.91
2017-02-08T08:45:07.463Z,3.98
2017-02-08T08:46:07.914Z,3.82
2017-02-08T08:47:07.528Z,3.80
2017-02-08T08:48:07.224Z,3.82
2017-02-08T08:49:07.906Z,4.02
2017-02-08T08:50:07.534Z,3.81
2017-02-08T08:51:07.133Z,3.75
2017-02-08T08:52:07.780Z,3.81
2017-02-08T08:53:07.499Z,3.72
2017-02-08T08:54:07.106Z,3.81
2017-02-08T08:55:07.904Z,4.01
2017-02-08T08:56:07.426Z,3.99
2017-02-08T08:57:07.089Z,4.09
2017-02-08T08:58:07.701Z,4.04
2017-02-08T08:59:07.381Z,4.23
2017-02-08T09:00:08.026Z,4.21
2017-02-08T09:01:07.637Z,3.88
2017-02-08T09:02:07.296Z,4.09
2017-02-08T09:03:07.944Z,3.88
2017-02-08T09:04:07.749Z,3.92
2017-02-08T09:05:07.460Z,3.76
2017-02-08T09:06:07.926Z,3.99
2017-02-08T09:07:07.525Z,3.94
2017-02-08T09:08:07.258Z,4.10
2017-02-08T09:09:07.918Z,4.08
2017-02-08T09:10:08.022Z,4.24
2017-02-08T09:11:07.207Z,4.10
2017-02-08T09:12:07.868Z,4.22
2017-02-08T09:13:07.527Z,3.78
2017-02-08T09:14:07.205Z,3.89
2017-02-08T09:15:07.848Z,4.00
2017-02-08T09:16:07.498Z,4.14
2017-02-08T09:17:07.226Z,3.95
2017-02-08T09:18:07.977Z,3.70
2017-02-08T09:19:08.719Z,3.99
2017-02-08T09:20:08.405Z,3.87
2017-02-08T09:21:07.931Z,3.92
2017-02-08T09:22:07.602Z,3.87
2017-02-08T09:23:07.238Z,3.98
2017-02-08T09:24:07.910Z,4.04
2017-02-08T09:25:07.551Z,4.15
2017-02-08T09:26:07.246Z,4.16
2017-02-08T09:27:07.853Z,3.94
2017-02-08T09:28:07.528Z,4.22
2017-02-08T09:29:07.283Z,4.28
2017-02-08T09:30:07.817Z,4.23
2017-02-08T09:31:07.500Z,4.04
2017-02-08T09:32:07.100Z,4.41
2017-02-08T09:33:08.831Z,4.19
2017-02-08T09:35:07.642Z,4.42
2017-02-08T09:36:08.441Z,4.65
2017-02-08T09:37:07.941Z,4.82
2017-02-08T09:38:07.588Z,4.60
2017-02-08T09:39:08.359Z,4.76
2017-02-08T09:40:08.073Z,4.46
2017-02-08T09:41:07.634Z,4.40
2017-02-08T09:42:07.259Z,4.53
2017-02-08T09:43:15.590Z,4.75
2017-02-08T09:44:07.690Z,4.72
2017-02-08T09:45:07.297Z,4.57
2017-02-08T09:46:07.959Z,4.32
2017-02-08T09:47:07.643Z,4.58
2017-02-08T09:48:14.905Z,4.81
2017-02-08T09:49:07.884Z,4.72
2017-02-08T09:50:15.155Z,4.93
2017-02-08T09:51:07.191Z,4.63
2017-02-08T09:52:07.867Z,4.65
2017-02-08T09:53:07.494Z,4.67
2017-02-08T09:54:07.139Z,4.74
2017-02-08T09:55:07.763Z,5.01
2017-02-08T09:56:14.929Z,4.68
2017-02-08T09:57:07.053Z,4.72
2017-02-08T09:58:07.695Z,4.77
2017-02-08T09:59:07.381Z,4.86
2017-02-08T10:00:15.520Z,4.63
2017-02-08T10:01:07.650Z,4.89
2017-02-08T10:02:07.358Z,4.75
2017-02-08T10:03:07.961Z,4.90
2017-02-08T10:04:07.758Z,4.85
2017-02-08T10:05:07.299Z,5.09
2017-02-08T10:06:08.028Z,5.30
2017-02-08T10:07:07.744Z,5.28
2017-02-08T10:08:08.413Z,5.18
2017-02-08T10:09:07.988Z,5.29
2017-02-08T10:10:07.682Z,5.06
2017-02-08T10:11:07.289Z,4.99
2017-02-08T10:12:08.043Z,5.23
2017-02-08T10:13:07.662Z,5.13
2017-02-08T10:14:07.340Z,4.93
2017-02-08T10:15:07.987Z,4.82
2017-02-08T10:16:07.650Z,5.17
2017-02-08T10:17:07.432Z,5.15
2017-02-08T10:18:07.148Z,5.18
2017-02-08T10:19:07.849Z,5.11
2017-02-08T10:20:07.529Z,5.30
2017-02-08T10:21:07.146Z,5.19
2017-02-08T10:22:07.835Z,5.10
2017-02-08T10:23:07.499Z,5.13
2017-02-08T10:24:07.162Z,5.26
2017-02-08T10:25:07.775Z,5.39
2017-02-08T10:26:08.490Z,5.30
2017-02-08T10:27:07.150Z,5.48
2017-02-08T10:28:08.846Z,5.12
2017-02-08T10:29:07.482Z,5.06
2017-02-08T10:30:07.126Z,5.04
2017-02-08T10:31:07.806Z,5.00
2017-02-08T10:32:07.491Z,5.26
2017-02-08T10:33:07.090Z,5.22
2017-02-08T10:34:07.771Z,5.39
2017-02-08T10:35:07.406Z,5.12
2017-02-08T10:36:07.066Z,5.24
2017-02-08T10:37:07.783Z,5.29
2017-02-08T10:38:07.446Z,5.57
2017-02-08T10:39:07.082Z,5.42
2017-02-08T10:40:07.758Z,5.55
2017-02-08T10:41:07.387Z,5.29
2017-02-08T10:42:07.044Z,5.30
2017-02-08T10:43:07.749Z,5.20
2017-02-08T10:44:07.427Z,5.12
2017-02-08T10:45:07.032Z,5.26
2017-02-08T10:46:07.702Z,5.38
2017-02-08T10:47:07.408Z,5.27
2017-02-08T10:48:07.052Z,5.34
2017-02-08T10:49:07.755Z,4.97
2017-02-08T10:50:07.454Z,5.30
2017-02-08T10:51:08.043Z,5.44
2017-02-08T10:52:08.873Z,5.57
2017-02-08T10:53:07.343Z,5.63
2017-02-08T10:54:08.021Z,5.48
2017-02-08T10:55:07.693Z,5.60
2017-02-08T10:56:07.365Z,5.56
2017-02-08T10:57:08.009Z,5.59
2017-02-08T10:58:07.643Z,5.73
2017-02-08T10:59:07.336Z,5.81
2017-02-08T11:00:09.074Z,5.79
2017-02-08T11:01:07.637Z,5.70
2017-02-08T11:02:07.290Z,5.60
2017-02-08T11:03:08.008Z,5.74
2017-02-08T11:04:07.607Z,5.72
2017-02-08T11:05:07.203Z,5.66
2017-02-08T11:06:07.887Z,5.65
2017-02-08T11:07:07.528Z,5.77
2017-02-08T11:08:07.256Z,5.64
2017-02-08T11:09:07.861Z,5.59
2017-02-08T11:10:07.515Z,5.64
2017-02-08T11:11:07.163Z,5.72
2017-02-08T11:12:07.848Z,5.92
2017-02-08T11:13:07.588Z,6.00
2017-02-08T11:14:07.176Z,5.92
2017-02-08T11:15:07.799Z,5.96
2017-02-08T11:16:07.445Z,6.17
2017-02-08T11:17:07.207Z,6.01
2017-02-08T11:18:07.967Z,5.90
2017-02-08T11:19:07.586Z,5.88
2017-02-08T11:20:07.252Z,5.96
2017-02-08T11:21:07.884Z,6.01
2017-02-08T11:22:07.545Z,5.94
2017-02-08T11:23:08.369Z,5.77
2017-02-08T11:24:07.898Z,5.92
2017-02-08T11:25:07.529Z,5.89
2017-02-08T11:26:07.224Z,5.86
2017-02-08T11:27:07.863Z,5.88
2017-02-08T11:28:07.517Z,5.72
2017-02-08T11:29:07.229Z,5.98
2017-02-08T11:30:07.888Z,6.13
2017-02-08T11:31:07.506Z,5.96
2017-02-08T11:32:07.143Z,5.94
2017-02-08T11:33:07.957Z,5.98
2017-02-08T11:34:07.583Z,5.97
2017-02-08T11:35:07.096Z,6.06
2017-02-08T11:36:07.875Z,5.68
2017-02-08T11:37:07.453Z,5.99
2017-02-08T11:38:07.093Z,5.97
2017-02-08T11:39:07.760Z,5.69
2017-02-08T11:40:14.988Z,5.79
2017-02-08T11:41:08.019Z,5.68
2017-02-08T11:42:07.666Z,5.83
2017-02-08T11:43:07.331Z,6.00
2017-02-08T11:44:18.524Z,6.11
2017-02-08T11:45:07.627Z,5.86
2017-02-08T11:46:08.346Z,5.84
2017-02-08T11:47:07.912Z,6.02
2017-02-08T11:48:07.556Z,5.87
2017-02-08T11:49:07.289Z,5.96
2017-02-08T11:50:07.885Z,5.84
2017-02-08T11:51:07.557Z,5.49
2017-02-08T11:52:07.255Z,5.92
2017-02-08T11:53:07.874Z,5.83
2017-02-08T11:54:07.583Z,6.12
2017-02-08T11:55:07.304Z,5.97
2017-02-08T11:56:07.883Z,5.96
2017-02-08T11:57:07.514Z,6.05
2017-02-08T11:58:07.183Z,5.99
2017-02-08T11:59:08.054Z,6.21
2017-02-08T12:00:08.639Z,5.72
2017-02-08T12:01:08.198Z,6.04
2017-02-08T12:02:07.802Z,6.00
2017-02-08T12:03:07.421Z,6.12
2017-02-08T12:04:08.183Z,5.98
2017-02-08T12:05:09.165Z,5.82
2017-02-08T12:06:07.382Z,5.65
2017-02-08T12:07:08.032Z,5.72
2017-02-08T12:08:07.666Z,5.75
2017-02-08T12:09:07.337Z,5.66
2017-02-08T12:10:08.021Z,5.91
2017-02-08T12:11:07.620Z,5.99
2017-02-08T12:12:07.265Z,5.81
2017-02-08T12:13:07.941Z,5.97
2017-02-08T12:14:07.719Z,5.94
2017-02-08T12:15:07.310Z,5.82
2017-02-08T12:16:07.966Z,5.88
2017-02-08T12:17:07.642Z,5.79
2017-02-08T12:18:07.397Z,5.88
2017-02-08T12:19:08.149Z,5.72
2017-02-08T12:20:07.773Z,6.00
2017-02-08T12:21:07.416Z,6.06
2017-02-08T12:22:07.044Z,6.00
2017-02-08T12:23:07.700Z,6.03
2017-02-08T12:24:07.345Z,6.03
2017-02-08T12:25:08.163Z,5.90
2017-02-08T12:26:07.641Z,5.87
2017-02-08T12:27:07.285Z,5.92
2017-02-08T12:28:07.953Z,5.91
2017-02-08T12:29:08.742Z,5.87
2017-02-08T12:30:07.240Z,5.78
2017-02-08T12:31:07.956Z,5.78
2017-02-08T12:32:07.607Z,5.54
2017-02-08T12:33:07.387Z,5.74
2017-02-08T12:34:08.027Z,6.00
2017-02-08T12:35:07.678Z,5.98
2017-02-08T12:36:08.444Z,5.88
2017-02-08T12:37:08.019Z,5.96
2017-02-08T12:38:08.746Z,5.85
2017-02-08T12:39:07.319Z,5.85
2017-02-08T12:40:08.187Z,6.00
2017-02-08T12:41:07.640Z,6.14
2017-02-08T12:42:07.370Z,5.93
2017-02-08T12:43:07.997Z,5.91
2017-02-08T12:44:07.653Z,6.13
2017-02-08T12:45:07.290Z,6.00
2017-02-08T12:46:07.958Z,6.05
2017-02-08T12:47:07.649Z,6.09
2017-02-08T12:48:08.368Z,6.21
2017-02-08T12:49:15.438Z,6.24
2017-02-08T12:50:07.551Z,6.15
2017-02-08T12:51:07.270Z,5.72
2017-02-08T12:52:07.923Z,5.82
2017-02-08T12:53:07.536Z,5.98
2017-02-08T12:54:07.193Z,5.87
2017-02-08T12:55:07.803Z,5.85
2017-02-08T12:56:07.475Z,5.93
2017-02-08T12:57:07.156Z,6.04
2017-02-08T12:58:07.796Z,5.86
2017-02-08T12:59:07.489Z,5.78
2017-02-08T13:00:07.175Z,5.64
2017-02-08T13:01:07.786Z,5.66
2017-02-08T13:02:07.473Z,5.98
2017-02-08T13:03:07.069Z,5.72
2017-02-08T13:04:07.738Z,6.06
2017-02-08T13:05:07.381Z,6.07
2017-02-08T13:06:07.076Z,5.95
2017-02-08T13:07:07.748Z,6.01
2017-02-08T13:08:07.355Z,5.94
2017-02-08T13:09:07.985Z,6.10
2017-02-08T13:10:07.650Z,5.93
2017-02-08T13:11:07.298Z,5.88
2017-02-08T13:12:08.006Z,6.07
2017-02-08T13:13:07.626Z,5.99
2017-02-08T13:14:07.355Z,5.96
2017-02-08T13:15:07.949Z,6.21
2017-02-08T13:16:07.560Z,6.12
2017-02-08T13:17:07.394Z,5.61
2017-02-08T13:18:08.025Z,5.77
2017-02-08T13:19:07.638Z,5.67
2017-02-08T13:20:07.378Z,5.67